Pagrindinis puslapis
METAR-TAF:

METAR-TAF

Oro uostai :

Meiringen, Šveicarija

platuma: 46-44-25N, ilguma: 8-06-36E, Aukštis: 577 m

Dabartinis oras

Ataskaita buvo paskelbta 33 minutes, ne 20:50 UTC
Vėjas 7 kt iš Rytų
Temperatūra 10°C
Drėgmė 66%
Slėgis 1023 hPa
Matomumas 10 km arba daugiau

METAR: LSMM 092050Z AUTO 10007KT 9999NDV NCD 10/04 Q1023 RMK

Laikas: 23:23 (21:23 UTC)


TAF: trūkstamas

Orai ataskaitas ir orų prognozės (METAR, TAF).

turimą stotys yra geltonos ir raudonos taškus žemėlapyje.

Perkelti pele per norėdami pamatyti stoties vardą.

Tada spustelėkite, norėdami matyti oro stebėjimo ir prognozės.

Norėdami pakeisti žemėlapį: spustelėkite ant žalios mygtukų su juodo kryžiaus žemyn,; žalią mygtuką su brūkšneliu, jei norite nutolinti; arba žalių rodyklių gretimoms žemėlapius.


METAR-TAF: